Terminal Aerodrome Forecast
Issued by NWS

Home | Current Version | Previous Version | Text Only | Print | Product List | Glossary On
Versions: 1 2 3 4 5 6 7 8 9 10 11 12 13 14 15
000
FTUS41 KBGM 110537
TAFRME
TAF
KRME 110537Z 1106/1206 24008KT P6SM OVC035
      TEMPO 1106/1108 3SM -SN OVC025
     FM110800 27008KT 3SM -SN OVC025
      TEMPO 1108/1112 1SM -SHSN OVC015
     FM111400 30007KT P6SM BKN035
     FM112200 VRB04KT P6SM BKN060
     FM120500 12007KT 2SM -SN OVC025=

USA.gov is the U.S. government's official web portal to all federal, state and local government web resources and services.